sensor_id;sensor_type;location;lat;lon;timestamp;P1;durP1;ratioP1;P2;durP2;ratioP2
71888;SDS011;59762;49.998;14.858;2023-06-14T00:00:51;7.82;;;5.07;;
71888;SDS011;59762;49.998;14.858;2023-06-14T00:03:37;5.82;;;4.55;;
71888;SDS011;59762;49.998;14.858;2023-06-14T00:06:04;18.15;;;9.23;;
71888;SDS011;59762;49.998;14.858;2023-06-14T00:08:30;10.77;;;6.40;;
71888;SDS011;59762;49.998;14.858;2023-06-14T00:10:55;12.27;;;7.32;;
71888;SDS011;59762;49.998;14.858;2023-06-14T00:13:21;13.63;;;7.50;;
71888;SDS011;59762;49.998;14.858;2023-06-14T00:15:47;9.18;;;6.05;;
71888;SDS011;59762;49.998;14.858;2023-06-14T00:18:12;7.63;;;5.18;;
71888;SDS011;59762;49.998;14.858;2023-06-14T00:20:38;6.22;;;4.70;;
71888;SDS011;59762;49.998;14.858;2023-06-14T00:23:04;7.43;;;4.68;;
71888;SDS011;59762;49.998;14.858;2023-06-14T00:25:30;6.95;;;4.53;;
71888;SDS011;59762;49.998;14.858;2023-06-14T00:27:56;6.07;;;4.50;;
71888;SDS011;59762;49.998;14.858;2023-06-14T00:30:22;7.25;;;5.13;;
71888;SDS011;59762;49.998;14.858;2023-06-14T00:32:48;7.95;;;4.78;;
71888;SDS011;59762;49.998;14.858;2023-06-14T00:35:15;7.63;;;4.28;;
71888;SDS011;59762;49.998;14.858;2023-06-14T00:37:41;7.43;;;4.53;;
71888;SDS011;59762;49.998;14.858;2023-06-14T00:40:07;5.82;;;4.38;;
71888;SDS011;59762;49.998;14.858;2023-06-14T00:42:33;6.13;;;4.20;;
71888;SDS011;59762;49.998;14.858;2023-06-14T00:44:59;5.65;;;4.47;;
71888;SDS011;59762;49.998;14.858;2023-06-14T00:47:25;6.55;;;4.60;;
71888;SDS011;59762;49.998;14.858;2023-06-14T00:49:52;6.18;;;4.70;;
71888;SDS011;59762;49.998;14.858;2023-06-14T00:52:19;5.63;;;4.00;;
71888;SDS011;59762;49.998;14.858;2023-06-14T00:54:46;5.85;;;3.97;;
71888;SDS011;59762;49.998;14.858;2023-06-14T00:57:12;6.38;;;4.25;;
71888;SDS011;59762;49.998;14.858;2023-06-14T00:59:42;6.85;;;3.72;;
71888;SDS011;59762;49.998;14.858;2023-06-14T01:02:12;6.00;;;4.20;;
71888;SDS011;59762;49.998;14.858;2023-06-14T01:04:40;5.53;;;3.92;;
71888;SDS011;59762;49.998;14.858;2023-06-14T01:15:31;6.03;;;4.07;;
71888;SDS011;59762;49.998;14.858;2023-06-14T01:17:57;7.63;;;4.40;;
71888;SDS011;59762;49.998;14.858;2023-06-14T01:20:29;8.25;;;5.00;;
71888;SDS011;59762;49.998;14.858;2023-06-14T01:22:56;10.40;;;5.78;;
71888;SDS011;59762;49.998;14.858;2023-06-14T01:25:22;9.55;;;5.45;;
71888;SDS011;59762;49.998;14.858;2023-06-14T01:27:49;7.30;;;4.25;;
71888;SDS011;59762;49.998;14.858;2023-06-14T01:30:17;10.20;;;5.30;;
71888;SDS011;59762;49.998;14.858;2023-06-14T01:32:44;9.23;;;5.75;;
71888;SDS011;59762;49.998;14.858;2023-06-14T01:35:11;6.35;;;4.40;;
71888;SDS011;59762;49.998;14.858;2023-06-14T01:37:37;6.40;;;3.95;;
71888;SDS011;59762;49.998;14.858;2023-06-14T01:40:03;11.57;;;4.22;;
71888;SDS011;59762;49.998;14.858;2023-06-14T01:42:32;7.22;;;4.05;;
71888;SDS011;59762;49.998;14.858;2023-06-14T01:45:01;6.05;;;3.80;;
71888;SDS011;59762;49.998;14.858;2023-06-14T01:47:29;6.70;;;3.90;;
71888;SDS011;59762;49.998;14.858;2023-06-14T01:49:55;6.25;;;4.28;;
71888;SDS011;59762;49.998;14.858;2023-06-14T01:52:21;6.18;;;4.40;;
71888;SDS011;59762;49.998;14.858;2023-06-14T01:54:47;6.55;;;4.63;;
71888;SDS011;59762;49.998;14.858;2023-06-14T01:57:14;8.25;;;4.47;;
71888;SDS011;59762;49.998;14.858;2023-06-14T01:59:40;7.38;;;4.93;;
71888;SDS011;59762;49.998;14.858;2023-06-14T02:02:06;8.77;;;3.97;;
71888;SDS011;59762;49.998;14.858;2023-06-14T02:04:32;8.35;;;3.90;;
71888;SDS011;59762;49.998;14.858;2023-06-14T02:06:57;10.98;;;4.25;;
71888;SDS011;59762;49.998;14.858;2023-06-14T02:09:23;7.43;;;4.32;;
71888;SDS011;59762;49.998;14.858;2023-06-14T02:11:49;5.63;;;3.92;;
71888;SDS011;59762;49.998;14.858;2023-06-14T02:14:15;6.00;;;4.63;;
71888;SDS011;59762;49.998;14.858;2023-06-14T02:16:42;8.40;;;5.10;;
71888;SDS011;59762;49.998;14.858;2023-06-14T02:19:17;5.78;;;4.00;;
71888;SDS011;59762;49.998;14.858;2023-06-14T02:21:44;8.65;;;3.92;;
71888;SDS011;59762;49.998;14.858;2023-06-14T02:24:10;9.23;;;4.15;;
71888;SDS011;59762;49.998;14.858;2023-06-14T02:26:36;5.43;;;4.13;;
71888;SDS011;59762;49.998;14.858;2023-06-14T02:29:08;6.35;;;4.72;;
71888;SDS011;59762;49.998;14.858;2023-06-14T02:31:36;6.40;;;4.30;;
71888;SDS011;59762;49.998;14.858;2023-06-14T02:34:02;8.60;;;4.55;;
71888;SDS011;59762;49.998;14.858;2023-06-14T02:36:28;5.82;;;4.30;;
71888;SDS011;59762;49.998;14.858;2023-06-14T02:38:56;9.00;;;3.97;;
71888;SDS011;59762;49.998;14.858;2023-06-14T02:41:25;7.30;;;4.43;;
71888;SDS011;59762;49.998;14.858;2023-06-14T02:43:52;8.20;;;4.78;;
71888;SDS011;59762;49.998;14.858;2023-06-14T02:46:18;8.38;;;5.50;;
71888;SDS011;59762;49.998;14.858;2023-06-14T02:48:44;7.07;;;4.85;;
71888;SDS011;59762;49.998;14.858;2023-06-14T02:51:10;9.25;;;4.68;;
71888;SDS011;59762;49.998;14.858;2023-06-14T02:53:37;6.72;;;4.72;;
71888;SDS011;59762;49.998;14.858;2023-06-14T02:56:03;6.88;;;4.55;;
71888;SDS011;59762;49.998;14.858;2023-06-14T02:58:29;7.68;;;4.35;;
71888;SDS011;59762;49.998;14.858;2023-06-14T03:00:55;6.25;;;4.38;;
71888;SDS011;59762;49.998;14.858;2023-06-14T03:03:21;8.15;;;4.63;;
71888;SDS011;59762;49.998;14.858;2023-06-14T03:05:50;5.43;;;4.18;;
71888;SDS011;59762;49.998;14.858;2023-06-14T03:08:16;9.75;;;4.90;;
71888;SDS011;59762;49.998;14.858;2023-06-14T03:10:47;6.50;;;4.63;;
71888;SDS011;59762;49.998;14.858;2023-06-14T03:13:14;9.40;;;4.38;;
71888;SDS011;59762;49.998;14.858;2023-06-14T03:15:46;7.53;;;4.70;;
71888;SDS011;59762;49.998;14.858;2023-06-14T03:18:12;6.13;;;4.97;;
71888;SDS011;59762;49.998;14.858;2023-06-14T03:20:40;8.00;;;4.65;;
71888;SDS011;59762;49.998;14.858;2023-06-14T03:23:06;9.50;;;5.25;;
71888;SDS011;59762;49.998;14.858;2023-06-14T03:25:32;6.38;;;4.43;;
71888;SDS011;59762;49.998;14.858;2023-06-14T03:28:01;8.32;;;4.70;;
71888;SDS011;59762;49.998;14.858;2023-06-14T03:30:28;6.03;;;4.53;;
71888;SDS011;59762;49.998;14.858;2023-06-14T03:32:54;5.72;;;4.47;;
71888;SDS011;59762;49.998;14.858;2023-06-14T03:35:21;7.30;;;4.53;;
71888;SDS011;59762;49.998;14.858;2023-06-14T03:37:47;5.90;;;4.53;;
71888;SDS011;59762;49.998;14.858;2023-06-14T03:40:14;7.22;;;4.90;;
71888;SDS011;59762;49.998;14.858;2023-06-14T03:42:41;6.63;;;4.40;;
71888;SDS011;59762;49.998;14.858;2023-06-14T03:45:07;8.45;;;4.22;;
71888;SDS011;59762;49.998;14.858;2023-06-14T03:47:33;8.00;;;4.55;;
71888;SDS011;59762;49.998;14.858;2023-06-14T03:49:59;8.75;;;5.03;;
71888;SDS011;59762;49.998;14.858;2023-06-14T03:52:25;7.55;;;4.45;;
71888;SDS011;59762;49.998;14.858;2023-06-14T03:54:51;6.03;;;4.22;;
71888;SDS011;59762;49.998;14.858;2023-06-14T03:57:17;9.52;;;4.20;;
71888;SDS011;59762;49.998;14.858;2023-06-14T03:59:43;6.57;;;4.57;;
71888;SDS011;59762;49.998;14.858;2023-06-14T04:02:08;9.43;;;4.60;;
71888;SDS011;59762;49.998;14.858;2023-06-14T04:04:37;6.63;;;3.55;;
71888;SDS011;59762;49.998;14.858;2023-06-14T04:07:02;7.47;;;3.78;;
71888;SDS011;59762;49.998;14.858;2023-06-14T04:09:29;4.68;;;3.53;;
71888;SDS011;59762;49.998;14.858;2023-06-14T04:11:55;5.28;;;3.90;;
71888;SDS011;59762;49.998;14.858;2023-06-14T04:14:21;6.03;;;4.05;;
71888;SDS011;59762;49.998;14.858;2023-06-14T04:16:48;7.88;;;4.20;;
71888;SDS011;59762;49.998;14.858;2023-06-14T04:19:15;6.03;;;3.97;;
71888;SDS011;59762;49.998;14.858;2023-06-14T04:21:41;10.02;;;4.47;;
71888;SDS011;59762;49.998;14.858;2023-06-14T04:24:07;4.07;;;3.55;;
71888;SDS011;59762;49.998;14.858;2023-06-14T04:26:38;7.05;;;3.97;;
71888;SDS011;59762;49.998;14.858;2023-06-14T04:29:10;5.63;;;4.28;;
71888;SDS011;59762;49.998;14.858;2023-06-14T04:31:41;5.88;;;3.88;;
71888;SDS011;59762;49.998;14.858;2023-06-14T04:34:08;6.00;;;4.40;;
71888;SDS011;59762;49.998;14.858;2023-06-14T04:36:33;7.50;;;3.97;;
71888;SDS011;59762;49.998;14.858;2023-06-14T04:39:00;6.78;;;4.35;;
71888;SDS011;59762;49.998;14.858;2023-06-14T04:41:28;7.28;;;4.30;;
71888;SDS011;59762;49.998;14.858;2023-06-14T04:43:59;8.60;;;4.25;;
71888;SDS011;59762;49.998;14.858;2023-06-14T04:46:27;5.45;;;4.65;;
71888;SDS011;59762;49.998;14.858;2023-06-14T04:48:54;7.72;;;4.60;;
71888;SDS011;59762;49.998;14.858;2023-06-14T04:51:19;9.52;;;4.82;;
71888;SDS011;59762;49.998;14.858;2023-06-14T04:53:47;6.95;;;4.63;;
71888;SDS011;59762;49.998;14.858;2023-06-14T04:56:14;6.07;;;4.25;;
71888;SDS011;59762;49.998;14.858;2023-06-14T04:58:40;9.13;;;4.50;;
71888;SDS011;59762;49.998;14.858;2023-06-14T05:01:06;7.10;;;4.38;;
71888;SDS011;59762;49.998;14.858;2023-06-14T05:03:34;8.65;;;5.00;;
71888;SDS011;59762;49.998;14.858;2023-06-14T05:06:00;9.90;;;5.22;;
71888;SDS011;59762;49.998;14.858;2023-06-14T05:08:26;5.40;;;3.40;;
71888;SDS011;59762;49.998;14.858;2023-06-14T05:10:52;5.97;;;4.53;;
71888;SDS011;59762;49.998;14.858;2023-06-14T05:13:18;7.97;;;4.43;;
71888;SDS011;59762;49.998;14.858;2023-06-14T05:15:44;6.55;;;4.45;;
71888;SDS011;59762;49.998;14.858;2023-06-14T05:18:10;6.70;;;4.32;;
71888;SDS011;59762;49.998;14.858;2023-06-14T05:20:35;5.50;;;4.47;;
71888;SDS011;59762;49.998;14.858;2023-06-14T05:23:02;8.30;;;4.80;;
71888;SDS011;59762;49.998;14.858;2023-06-14T05:25:28;7.85;;;4.82;;
71888;SDS011;59762;49.998;14.858;2023-06-14T05:27:54;6.45;;;4.57;;
71888;SDS011;59762;49.998;14.858;2023-06-14T05:30:19;11.35;;;4.50;;
71888;SDS011;59762;49.998;14.858;2023-06-14T05:32:45;7.20;;;4.53;;
71888;SDS011;59762;49.998;14.858;2023-06-14T05:35:11;8.13;;;4.80;;
71888;SDS011;59762;49.998;14.858;2023-06-14T05:37:37;7.32;;;4.50;;
71888;SDS011;59762;49.998;14.858;2023-06-14T05:40:03;5.75;;;4.47;;
71888;SDS011;59762;49.998;14.858;2023-06-14T05:42:31;7.25;;;4.43;;
71888;SDS011;59762;49.998;14.858;2023-06-14T05:44:57;9.15;;;4.50;;
71888;SDS011;59762;49.998;14.858;2023-06-14T05:47:23;11.05;;;5.10;;
71888;SDS011;59762;49.998;14.858;2023-06-14T05:49:49;6.13;;;4.70;;
71888;SDS011;59762;49.998;14.858;2023-06-14T05:52:14;5.57;;;4.50;;
71888;SDS011;59762;49.998;14.858;2023-06-14T05:54:40;11.77;;;5.18;;
71888;SDS011;59762;49.998;14.858;2023-06-14T05:57:06;7.28;;;4.45;;
71888;SDS011;59762;49.998;14.858;2023-06-14T05:59:32;5.90;;;4.18;;
71888;SDS011;59762;49.998;14.858;2023-06-14T06:01:58;6.88;;;4.32;;
71888;SDS011;59762;49.998;14.858;2023-06-14T06:04:23;6.72;;;4.50;;
71888;SDS011;59762;49.998;14.858;2023-06-14T06:06:49;7.53;;;4.05;;
71888;SDS011;59762;49.998;14.858;2023-06-14T06:09:15;8.60;;;4.47;;
71888;SDS011;59762;49.998;14.858;2023-06-14T06:11:41;6.25;;;4.82;;
71888;SDS011;59762;49.998;14.858;2023-06-14T06:14:06;6.65;;;4.35;;
71888;SDS011;59762;49.998;14.858;2023-06-14T06:16:32;5.85;;;4.45;;
71888;SDS011;59762;49.998;14.858;2023-06-14T06:18:58;6.40;;;4.55;;
71888;SDS011;59762;49.998;14.858;2023-06-14T06:21:24;6.50;;;4.82;;
71888;SDS011;59762;49.998;14.858;2023-06-14T06:23:50;5.80;;;4.32;;
71888;SDS011;59762;49.998;14.858;2023-06-14T06:26:16;5.20;;;4.43;;
71888;SDS011;59762;49.998;14.858;2023-06-14T06:28:41;6.47;;;4.25;;
71888;SDS011;59762;49.998;14.858;2023-06-14T06:31:07;5.80;;;4.35;;
71888;SDS011;59762;49.998;14.858;2023-06-14T06:33:33;8.13;;;4.25;;
71888;SDS011;59762;49.998;14.858;2023-06-14T06:35:58;5.78;;;4.00;;
71888;SDS011;59762;49.998;14.858;2023-06-14T06:38:24;7.18;;;3.90;;
71888;SDS011;59762;49.998;14.858;2023-06-14T06:40:50;4.88;;;3.90;;
71888;SDS011;59762;49.998;14.858;2023-06-14T06:43:16;5.53;;;4.00;;
71888;SDS011;59762;49.998;14.858;2023-06-14T06:45:43;6.53;;;4.07;;
71888;SDS011;59762;49.998;14.858;2023-06-14T06:48:08;6.13;;;4.00;;
71888;SDS011;59762;49.998;14.858;2023-06-14T06:50:37;5.80;;;4.43;;
71888;SDS011;59762;49.998;14.858;2023-06-14T06:53:03;7.38;;;4.35;;
71888;SDS011;59762;49.998;14.858;2023-06-14T06:55:29;5.97;;;4.43;;
71888;SDS011;59762;49.998;14.858;2023-06-14T06:57:55;5.57;;;4.22;;
71888;SDS011;59762;49.998;14.858;2023-06-14T07:00:21;5.45;;;3.95;;
71888;SDS011;59762;49.998;14.858;2023-06-14T07:02:47;6.63;;;4.35;;
71888;SDS011;59762;49.998;14.858;2023-06-14T07:05:13;6.82;;;4.18;;
71888;SDS011;59762;49.998;14.858;2023-06-14T07:07:38;10.20;;;4.13;;
71888;SDS011;59762;49.998;14.858;2023-06-14T07:10:04;4.85;;;3.90;;
71888;SDS011;59762;49.998;14.858;2023-06-14T07:12:31;7.45;;;4.50;;
71888;SDS011;59762;49.998;14.858;2023-06-14T07:14:59;6.57;;;4.35;;
71888;SDS011;59762;49.998;14.858;2023-06-14T07:17:25;6.32;;;3.90;;
71888;SDS011;59762;49.998;14.858;2023-06-14T07:19:51;8.95;;;4.43;;
71888;SDS011;59762;49.998;14.858;2023-06-14T07:22:17;6.38;;;4.15;;
71888;SDS011;59762;49.998;14.858;2023-06-14T07:24:43;5.03;;;4.20;;
71888;SDS011;59762;49.998;14.858;2023-06-14T07:27:08;5.95;;;4.30;;
71888;SDS011;59762;49.998;14.858;2023-06-14T07:29:34;8.68;;;4.32;;
71888;SDS011;59762;49.998;14.858;2023-06-14T07:32:00;7.90;;;4.80;;
71888;SDS011;59762;49.998;14.858;2023-06-14T07:34:26;6.38;;;3.88;;
71888;SDS011;59762;49.998;14.858;2023-06-14T07:36:52;6.88;;;4.30;;
71888;SDS011;59762;49.998;14.858;2023-06-14T07:39:19;6.10;;;4.15;;
71888;SDS011;59762;49.998;14.858;2023-06-14T07:41:45;9.68;;;4.07;;
71888;SDS011;59762;49.998;14.858;2023-06-14T07:44:11;6.55;;;4.20;;
71888;SDS011;59762;49.998;14.858;2023-06-14T07:46:37;6.07;;;3.67;;
71888;SDS011;59762;49.998;14.858;2023-06-14T07:49:03;8.02;;;3.95;;
71888;SDS011;59762;49.998;14.858;2023-06-14T07:51:30;7.55;;;3.90;;
71888;SDS011;59762;49.998;14.858;2023-06-14T07:53:55;6.53;;;3.55;;
71888;SDS011;59762;49.998;14.858;2023-06-14T07:56:21;6.72;;;3.95;;
71888;SDS011;59762;49.998;14.858;2023-06-14T07:58:48;4.72;;;3.72;;
71888;SDS011;59762;49.998;14.858;2023-06-14T08:01:14;4.53;;;3.80;;
71888;SDS011;59762;49.998;14.858;2023-06-14T08:03:40;5.95;;;3.80;;
71888;SDS011;59762;49.998;14.858;2023-06-14T08:06:06;5.15;;;3.78;;
71888;SDS011;59762;49.998;14.858;2023-06-14T08:08:32;5.88;;;3.58;;
71888;SDS011;59762;49.998;14.858;2023-06-14T08:10:58;6.68;;;4.10;;
71888;SDS011;59762;49.998;14.858;2023-06-14T08:13:24;5.90;;;3.13;;
71888;SDS011;59762;49.998;14.858;2023-06-14T08:15:50;6.78;;;3.50;;
71888;SDS011;59762;49.998;14.858;2023-06-14T08:18:16;7.40;;;3.58;;
71888;SDS011;59762;49.998;14.858;2023-06-14T08:20:41;5.35;;;3.40;;
71888;SDS011;59762;49.998;14.858;2023-06-14T08:23:07;4.10;;;3.15;;
71888;SDS011;59762;49.998;14.858;2023-06-14T08:25:34;4.47;;;3.60;;
71888;SDS011;59762;49.998;14.858;2023-06-14T08:28:00;4.32;;;2.70;;
71888;SDS011;59762;49.998;14.858;2023-06-14T08:30:26;6.80;;;3.45;;
71888;SDS011;59762;49.998;14.858;2023-06-14T08:32:51;4.47;;;3.35;;
71888;SDS011;59762;49.998;14.858;2023-06-14T08:35:17;4.18;;;3.05;;
71888;SDS011;59762;49.998;14.858;2023-06-14T08:37:43;5.78;;;3.42;;
71888;SDS011;59762;49.998;14.858;2023-06-14T08:40:27;6.93;;;3.80;;
71888;SDS011;59762;49.998;14.858;2023-06-14T08:42:55;10.23;;;4.07;;
71888;SDS011;59762;49.998;14.858;2023-06-14T08:48:50;6.07;;;4.15;;
71888;SDS011;59762;49.998;14.858;2023-06-14T08:51:18;6.30;;;4.13;;
71888;SDS011;59762;49.998;14.858;2023-06-14T08:53:44;5.90;;;3.72;;
71888;SDS011;59762;49.998;14.858;2023-06-14T08:56:11;4.63;;;3.35;;
71888;SDS011;59762;49.998;14.858;2023-06-14T08:58:42;7.03;;;3.97;;
71888;SDS011;59762;49.998;14.858;2023-06-14T09:01:11;4.63;;;3.63;;
71888;SDS011;59762;49.998;14.858;2023-06-14T09:03:42;5.95;;;3.90;;
71888;SDS011;59762;49.998;14.858;2023-06-14T09:06:08;4.97;;;2.85;;
71888;SDS011;59762;49.998;14.858;2023-06-14T09:08:42;3.95;;;3.33;;
71888;SDS011;59762;49.998;14.858;2023-06-14T09:11:13;8.05;;;4.43;;
71888;SDS011;59762;49.998;14.858;2023-06-14T09:13:39;6.05;;;3.33;;
71888;SDS011;59762;49.998;14.858;2023-06-14T09:16:06;7.50;;;3.35;;
71888;SDS011;59762;49.998;14.858;2023-06-14T09:19:06;5.32;;;3.63;;
71888;SDS011;59762;49.998;14.858;2023-06-14T09:21:25;5.40;;;3.60;;
71888;SDS011;59762;49.998;14.858;2023-06-14T09:23:50;4.63;;;3.30;;
71888;SDS011;59762;49.998;14.858;2023-06-14T09:26:18;4.38;;;3.05;;
71888;SDS011;59762;49.998;14.858;2023-06-14T09:28:48;5.28;;;2.97;;
71888;SDS011;59762;49.998;14.858;2023-06-14T09:31:17;4.07;;;2.75;;
71888;SDS011;59762;49.998;14.858;2023-06-14T09:33:49;3.92;;;2.67;;
71888;SDS011;59762;49.998;14.858;2023-06-14T09:36:16;5.10;;;2.88;;
71888;SDS011;59762;49.998;14.858;2023-06-14T09:38:51;4.10;;;2.92;;
71888;SDS011;59762;49.998;14.858;2023-06-14T09:41:34;3.92;;;2.50;;
71888;SDS011;59762;49.998;14.858;2023-06-14T09:44:02;4.55;;;3.25;;
71888;SDS011;59762;49.998;14.858;2023-06-14T09:46:30;4.00;;;2.78;;
71888;SDS011;59762;49.998;14.858;2023-06-14T09:48:56;4.80;;;2.65;;
71888;SDS011;59762;49.998;14.858;2023-06-14T09:51:23;3.97;;;2.78;;
71888;SDS011;59762;49.998;14.858;2023-06-14T09:53:49;3.22;;;2.47;;
71888;SDS011;59762;49.998;14.858;2023-06-14T09:57:00;4.53;;;2.40;;
71888;SDS011;59762;49.998;14.858;2023-06-14T09:59:06;6.03;;;3.13;;
71888;SDS011;59762;49.998;14.858;2023-06-14T10:01:35;5.40;;;2.63;;
71888;SDS011;59762;49.998;14.858;2023-06-14T10:04:08;6.88;;;2.60;;
71888;SDS011;59762;49.998;14.858;2023-06-14T10:06:43;3.95;;;2.65;;
71888;SDS011;59762;49.998;14.858;2023-06-14T10:09:11;4.78;;;2.30;;
71888;SDS011;59762;49.998;14.858;2023-06-14T10:11:38;5.50;;;2.70;;
71888;SDS011;59762;49.998;14.858;2023-06-14T10:14:09;5.55;;;2.60;;
71888;SDS011;59762;49.998;14.858;2023-06-14T10:24:33;4.80;;;2.50;;
71888;SDS011;59762;49.998;14.858;2023-06-14T10:27:06;3.72;;;2.58;;
71888;SDS011;59762;49.998;14.858;2023-06-14T10:29:43;3.80;;;2.85;;
71888;SDS011;59762;49.998;14.858;2023-06-14T10:32:27;5.25;;;2.40;;
71888;SDS011;59762;49.998;14.858;2023-06-14T10:35:15;4.22;;;2.60;;
71888;SDS011;59762;49.998;14.858;2023-06-14T10:37:42;5.43;;;2.30;;
71888;SDS011;59762;49.998;14.858;2023-06-14T10:40:20;5.13;;;2.67;;
71888;SDS011;59762;49.998;14.858;2023-06-14T10:42:56;3.63;;;2.47;;
71888;SDS011;59762;49.998;14.858;2023-06-14T10:45:21;4.53;;;2.70;;
71888;SDS011;59762;49.998;14.858;2023-06-14T10:47:48;7.72;;;2.90;;
71888;SDS011;59762;49.998;14.858;2023-06-14T10:50:14;3.97;;;2.67;;
71888;SDS011;59762;49.998;14.858;2023-06-14T10:52:42;4.40;;;2.35;;
71888;SDS011;59762;49.998;14.858;2023-06-14T10:55:15;3.75;;;2.78;;
71888;SDS011;59762;49.998;14.858;2023-06-14T11:00:17;4.75;;;2.92;;
71888;SDS011;59762;49.998;14.858;2023-06-14T11:05:53;4.22;;;2.53;;
71888;SDS011;59762;49.998;14.858;2023-06-14T11:08:40;4.13;;;2.70;;
71888;SDS011;59762;49.998;14.858;2023-06-14T11:11:30;4.18;;;2.60;;
71888;SDS011;59762;49.998;14.858;2023-06-14T11:13:59;4.57;;;2.47;;
71888;SDS011;59762;49.998;14.858;2023-06-14T11:16:26;3.28;;;2.67;;
71888;SDS011;59762;49.998;14.858;2023-06-14T11:18:53;4.47;;;2.88;;
71888;SDS011;59762;49.998;14.858;2023-06-14T11:21:19;5.30;;;2.80;;
71888;SDS011;59762;49.998;14.858;2023-06-14T11:23:51;7.00;;;2.80;;
71888;SDS011;59762;49.998;14.858;2023-06-14T11:26:30;4.47;;;2.60;;
71888;SDS011;59762;49.998;14.858;2023-06-14T11:29:00;4.80;;;3.00;;
71888;SDS011;59762;49.998;14.858;2023-06-14T11:31:26;3.25;;;2.60;;
71888;SDS011;59762;49.998;14.858;2023-06-14T11:33:54;4.05;;;2.50;;
71888;SDS011;59762;49.998;14.858;2023-06-14T11:36:20;4.10;;;2.53;;
71888;SDS011;59762;49.998;14.858;2023-06-14T11:38:46;4.40;;;2.70;;
71888;SDS011;59762;49.998;14.858;2023-06-14T11:41:12;4.35;;;2.70;;
71888;SDS011;59762;49.998;14.858;2023-06-14T11:43:37;4.28;;;2.58;;
71888;SDS011;59762;49.998;14.858;2023-06-14T11:46:11;4.65;;;2.80;;
71888;SDS011;59762;49.998;14.858;2023-06-14T11:48:42;3.70;;;2.85;;
71888;SDS011;59762;49.998;14.858;2023-06-14T11:51:08;4.50;;;2.53;;
71888;SDS011;59762;49.998;14.858;2023-06-14T11:53:34;3.63;;;2.40;;
71888;SDS011;59762;49.998;14.858;2023-06-14T11:56:00;4.45;;;2.45;;
71888;SDS011;59762;49.998;14.858;2023-06-14T11:58:27;4.50;;;2.50;;
71888;SDS011;59762;49.998;14.858;2023-06-14T12:00:55;5.00;;;2.72;;
71888;SDS011;59762;49.998;14.858;2023-06-14T12:03:24;2.92;;;2.38;;
71888;SDS011;59762;49.998;14.858;2023-06-14T12:05:50;5.22;;;2.67;;
71888;SDS011;59762;49.998;14.858;2023-06-14T12:08:34;3.17;;;2.88;;
71888;SDS011;59762;49.998;14.858;2023-06-14T12:11:04;4.10;;;2.80;;
71888;SDS011;59762;49.998;14.858;2023-06-14T12:13:31;4.15;;;2.50;;
71888;SDS011;59762;49.998;14.858;2023-06-14T12:15:57;3.38;;;2.30;;
71888;SDS011;59762;49.998;14.858;2023-06-14T12:18:32;5.00;;;3.03;;
71888;SDS011;59762;49.998;14.858;2023-06-14T12:20:59;3.08;;;2.20;;
71888;SDS011;59762;49.998;14.858;2023-06-14T12:23:47;4.38;;;2.88;;
71888;SDS011;59762;49.998;14.858;2023-06-14T12:26:14;3.70;;;2.38;;
71888;SDS011;59762;49.998;14.858;2023-06-14T12:28:42;4.10;;;2.17;;
71888;SDS011;59762;49.998;14.858;2023-06-14T12:31:08;5.45;;;2.75;;
71888;SDS011;59762;49.998;14.858;2023-06-14T12:33:34;4.70;;;2.72;;
71888;SDS011;59762;49.998;14.858;2023-06-14T12:36:02;3.97;;;2.30;;
71888;SDS011;59762;49.998;14.858;2023-06-14T12:38:29;3.88;;;2.78;;
71888;SDS011;59762;49.998;14.858;2023-06-14T12:40:54;6.18;;;2.15;;
71888;SDS011;59762;49.998;14.858;2023-06-14T12:43:20;5.03;;;2.05;;
71888;SDS011;59762;49.998;14.858;2023-06-14T12:45:46;5.18;;;2.53;;
71888;SDS011;59762;49.998;14.858;2023-06-14T12:48:12;5.18;;;2.70;;
71888;SDS011;59762;49.998;14.858;2023-06-14T12:50:37;4.47;;;2.50;;
71888;SDS011;59762;49.998;14.858;2023-06-14T12:53:03;4.85;;;2.13;;
71888;SDS011;59762;49.998;14.858;2023-06-14T12:55:28;2.60;;;2.25;;
71888;SDS011;59762;49.998;14.858;2023-06-14T12:57:54;3.05;;;2.13;;
71888;SDS011;59762;49.998;14.858;2023-06-14T13:00:20;4.53;;;2.60;;
71888;SDS011;59762;49.998;14.858;2023-06-14T13:02:47;3.13;;;2.13;;
71888;SDS011;59762;49.998;14.858;2023-06-14T13:05:12;3.33;;;2.50;;
71888;SDS011;59762;49.998;14.858;2023-06-14T13:07:38;6.30;;;2.92;;
71888;SDS011;59762;49.998;14.858;2023-06-14T13:10:04;8.00;;;2.88;;
71888;SDS011;59762;49.998;14.858;2023-06-14T13:12:30;3.42;;;2.53;;
71888;SDS011;59762;49.998;14.858;2023-06-14T13:14:55;9.65;;;2.55;;
71888;SDS011;59762;49.998;14.858;2023-06-14T13:17:21;5.13;;;2.42;;
71888;SDS011;59762;49.998;14.858;2023-06-14T13:19:47;4.18;;;2.90;;
71888;SDS011;59762;49.998;14.858;2023-06-14T13:22:12;3.83;;;2.65;;
71888;SDS011;59762;49.998;14.858;2023-06-14T13:24:38;5.40;;;2.70;;
71888;SDS011;59762;49.998;14.858;2023-06-14T13:27:04;3.72;;;2.55;;
71888;SDS011;59762;49.998;14.858;2023-06-14T13:29:30;3.53;;;2.40;;
71888;SDS011;59762;49.998;14.858;2023-06-14T13:31:56;3.95;;;2.42;;
71888;SDS011;59762;49.998;14.858;2023-06-14T13:34:22;3.63;;;2.53;;
71888;SDS011;59762;49.998;14.858;2023-06-14T13:36:48;6.38;;;2.75;;
71888;SDS011;59762;49.998;14.858;2023-06-14T13:39:14;3.78;;;2.47;;
71888;SDS011;59762;49.998;14.858;2023-06-14T13:41:40;4.35;;;2.67;;
71888;SDS011;59762;49.998;14.858;2023-06-14T13:44:06;6.18;;;3.05;;
71888;SDS011;59762;49.998;14.858;2023-06-14T13:46:31;4.05;;;2.53;;
71888;SDS011;59762;49.998;14.858;2023-06-14T13:48:57;4.40;;;2.90;;
71888;SDS011;59762;49.998;14.858;2023-06-14T13:51:27;3.47;;;2.53;;
71888;SDS011;59762;49.998;14.858;2023-06-14T13:53:52;7.45;;;2.47;;
71888;SDS011;59762;49.998;14.858;2023-06-14T13:56:18;2.80;;;2.17;;
71888;SDS011;59762;49.998;14.858;2023-06-14T13:58:44;4.13;;;2.45;;
71888;SDS011;59762;49.998;14.858;2023-06-14T14:01:10;3.47;;;2.50;;
71888;SDS011;59762;49.998;14.858;2023-06-14T14:03:37;3.58;;;2.38;;
71888;SDS011;59762;49.998;14.858;2023-06-14T14:06:03;4.85;;;2.40;;
71888;SDS011;59762;49.998;14.858;2023-06-14T14:08:29;2.78;;;2.08;;
71888;SDS011;59762;49.998;14.858;2023-06-14T14:10:55;10.45;;;2.60;;
71888;SDS011;59762;49.998;14.858;2023-06-14T14:13:21;6.72;;;2.65;;
71888;SDS011;59762;49.998;14.858;2023-06-14T14:15:47;3.45;;;1.98;;
71888;SDS011;59762;49.998;14.858;2023-06-14T14:18:14;2.83;;;2.20;;
71888;SDS011;59762;49.998;14.858;2023-06-14T14:20:40;2.78;;;2.10;;
71888;SDS011;59762;49.998;14.858;2023-06-14T14:23:06;4.68;;;2.00;;
71888;SDS011;59762;49.998;14.858;2023-06-14T14:25:32;6.60;;;2.58;;
71888;SDS011;59762;49.998;14.858;2023-06-14T14:27:57;5.03;;;2.75;;
71888;SDS011;59762;49.998;14.858;2023-06-14T14:30:23;3.13;;;2.20;;
71888;SDS011;59762;49.998;14.858;2023-06-14T14:32:49;7.03;;;2.42;;
71888;SDS011;59762;49.998;14.858;2023-06-14T14:35:16;4.72;;;2.30;;
71888;SDS011;59762;49.998;14.858;2023-06-14T14:37:42;6.10;;;2.42;;
71888;SDS011;59762;49.998;14.858;2023-06-14T14:40:09;3.75;;;2.47;;
71888;SDS011;59762;49.998;14.858;2023-06-14T14:42:35;5.38;;;2.05;;
71888;SDS011;59762;49.998;14.858;2023-06-14T14:45:01;9.45;;;2.60;;
71888;SDS011;59762;49.998;14.858;2023-06-14T14:47:27;3.45;;;2.50;;
71888;SDS011;59762;49.998;14.858;2023-06-14T14:49:53;7.35;;;2.63;;
71888;SDS011;59762;49.998;14.858;2023-06-14T14:52:18;5.20;;;2.55;;
71888;SDS011;59762;49.998;14.858;2023-06-14T14:54:44;3.45;;;2.75;;
71888;SDS011;59762;49.998;14.858;2023-06-14T14:57:10;5.38;;;2.40;;
71888;SDS011;59762;49.998;14.858;2023-06-14T14:59:36;3.53;;;2.53;;